Time;durP1;ratioP1;P1;durP2;ratioP2;P2;SDS_P1;SDS_P2;PMS_P1;PMS_P2;Temp;Humidity;BMP_temperature;BMP_pressure;BME280_temperature;BME280_humidity;BME280_pressure;Samples;Min_cycle;Max_cycle;Signal;HPM_P1;HPM_P2
2023/05/24 00:09:11;;;;;;;13.5;12.2;;;;;;;-132.3;0;76500;;;;
2023/05/24 00:19:17;;;;;;;13.5;12.2;;;;;;;-132.3;0;76500;;;;
2023/05/24 00:29:11;;;;;;;13.5;12.2;;;;;;;-132.3;0;76500;;;;
2023/05/24 00:39:11;;;;;;;12.7;10.1;;;;;;;-132.3;0;76500;;;;
2023/05/24 00:50:13;;;;;;;12.7;10.1;;;;;;;-132.3;0;76500;;;;
2023/05/24 01:00:11;;;;;;;12.7;10.1;;;;;;;-132.3;0;76510;;;;
2023/05/24 01:11:11;;;;;;;12.3;10.1;;;;;;;-132.3;0;76500;;;;
2023/05/24 01:21:11;;;;;;;12.3;10.1;;;;;;;-132.3;0;76500;;;;
2023/05/24 01:31:11;;;;;;;12.3;10.1;;;;;;;-132.3;0;76510;;;;
2023/05/24 01:41:11;;;;;;;13;10;;;;;;;-132.3;0;76500;;;;
2023/05/24 01:52:11;;;;;;;13;10;;;;;;;-132.3;0;76510;;;;
2023/05/24 02:02:11;;;;;;;;;;;;;;;-132.3;0;76510;;;;
2023/05/24 02:12:11;;;;;;;13.4;12;;;;;;;-132.3;0;76510;;;;
2023/05/24 02:23:11;;;;;;;13.4;12;;;;;;;-132.3;0;76510;;;;
2023/05/24 02:34:11;;;;;;;22.5;18.7;;;;;;;-132.3;0;76510;;;;
2023/05/24 02:45:12;;;;;;;22.5;18.7;;;;;;;-132.3;0;76510;;;;
2023/05/24 02:56:12;;;;;;;22.5;18.7;;;;;;;-132.3;0;76520;;;;
2023/05/24 03:07:12;;;;;;;34;30;;;;;;;-132.3;0;76510;;;;
2023/05/24 03:17:11;;;;;;;34;30;;;;;;;-132.3;0;76520;;;;
2023/05/24 03:28:13;;;;;;;34;30;;;;;;;-132.3;0;76520;;;;
2023/05/24 03:38:11;;;;;;;37.1;32.6;;;;;;;-132.3;0;76520;;;;
2023/05/24 03:48:12;;;;;;;37.1;32.6;;;;;;;-132.3;0;76520;;;;
2023/05/24 03:58:11;;;;;;;37.1;32.6;;;;;;;-132.3;0;76530;;;;
2023/05/24 04:09:11;;;;;;;43.6;35.3;;;;;;;-132.3;0;76530;;;;
2023/05/24 04:19:11;;;;;;;43.6;35.3;;;;;;;-132.3;0;76550;;;;
2023/05/24 04:29:12;;;;;;;43.6;35.3;;;;;;;-132.3;0;76570;;;;
2023/05/24 04:39:11;;;;;;;41.5;35.7;;;;;;;-132.3;0;76590;;;;
2023/05/24 04:50:11;;;;;;;41.5;35.7;;;;;;;-132.3;0;76600;;;;
2023/05/24 05:00:12;;;;;;;41.5;35.7;;;;;;;-132.3;0;76610;;;;
2023/05/24 05:11:12;;;;;;;45.8;40.5;;;;;;;-132.3;0;76620;;;;
2023/05/24 05:22:12;;;;;;;45.8;40.5;;;;;;;-132.3;0;76630;;;;
2023/05/24 05:33:12;;;;;;;45.8;40.5;;;;;;;-132.3;0;76630;;;;
2023/05/24 05:44:12;;;;;;;55.8;46.2;;;;;;;-132.3;0;76630;;;;
2023/05/24 05:55:12;;;;;;;55.8;46.2;;;;;;;-132.3;0;76620;;;;
2023/05/24 06:05:12;;;;;;;53.7;42;;;;;;;-132.3;0;76630;;;;
2023/05/24 06:15:12;;;;;;;53.7;42;;;;;;;-132.3;0;76620;;;;
2023/05/24 06:25:13;;;;;;;53.7;42;;;;;;;-132.3;0;76620;;;;
2023/05/24 06:36:12;;;;;;;46.3;39.9;;;;;;;-132.3;0;76620;;;;
2023/05/24 06:46:12;;;;;;;46.3;39.9;;;;;;;-132.3;0;76600;;;;
2023/05/24 06:56:12;;;;;;;46.3;39.9;;;;;;;-132.3;0;76610;;;;
2023/05/24 07:06:12;;;;;;;38.3;31.4;;;;;;;-132.3;0;76630;;;;
2023/05/24 07:16:12;;;;;;;38.3;31.4;;;;;;;-132.3;0;76620;;;;
2023/05/24 07:27:12;;;;;;;38.3;31.4;;;;;;;-132.3;0;76700;;;;
2023/05/24 07:38:12;;;;;;;31.7;26.1;;;;;;;-132.3;0;76760;;;;
2023/05/24 07:48:12;;;;;;;31.7;26.1;;;;;;;-132.3;0;76780;;;;
2023/05/24 07:59:12;;;;;;;31.7;26.1;;;;;;;-132.3;0;76840;;;;
2023/05/24 08:09:12;;;;;;;33.9;27.6;;;;;;;-132.3;0;76880;;;;
2023/05/24 08:20:14;;;;;;;33.9;27.6;;;;;;;-132.3;0;76910;;;;
2023/05/24 08:30:13;;;;;;;33.9;27.6;;;;;;;-132.3;0;76930;;;;
2023/05/24 08:41:12;;;;;;;31.3;27.1;;;;;;;-132.3;0;76970;;;;
2023/05/24 08:51:12;;;;;;;31.3;27.1;;;;;;;-132.3;0;77010;;;;
2023/05/24 09:02:12;;;;;;;31.3;27.1;;;;;;;-132.3;0;77030;;;;
2023/05/24 09:12:12;;;;;;;22;19.6;;;;;;;-132.3;0;77060;;;;
2023/05/24 09:23:13;;;;;;;22;19.6;;;;;;;-132.3;0;77080;;;;
2023/05/24 09:33:12;;;;;;;23;18;;;;;;;-132.3;0;77100;;;;
2023/05/24 09:44:12;;;;;;;23;18;;;;;;;-132.3;0;77140;;;;
2023/05/24 09:55:12;;;;;;;23;18;;;;;;;-132.3;0;77130;;;;
2023/05/24 10:05:12;;;;;;;23.8;19.9;;;;;;;-132.3;0;77130;;;;
2023/05/24 10:15:12;;;;;;;23.8;19.9;;;;;;;-132.3;0;77140;;;;
2023/05/24 10:25:13;;;;;;;23.8;19.9;;;;;;;-132.3;0;77110;;;;
2023/05/24 10:36:12;;;;;;;26.4;23.3;;;;;;;-132.3;0;77070;;;;
2023/05/24 10:47:12;;;;;;;26.4;23.3;;;;;;;-132.3;0;77050;;;;
2023/05/24 10:57:12;;;;;;;26.4;23.3;;;;;;;-132.3;0;77030;;;;
2023/05/24 11:08:12;;;;;;;27.3;23;;;;;;;-132.3;0;77040;;;;
2023/05/24 11:19:12;;;;;;;27.3;23;;;;;;;-132.3;0;77040;;;;
2023/05/24 11:30:12;;;;;;;27.3;23;;;;;;;-132.3;0;77030;;;;
2023/05/24 11:41:12;;;;;;;24.5;20.8;;;;;;;-132.3;0;77040;;;;
2023/05/24 11:51:12;;;;;;;24.5;20.8;;;;;;;-132.3;0;77010;;;;
2023/05/24 12:02:12;;;;;;;24.5;20.8;;;;;;;-132.3;0;77000;;;;
2023/05/24 12:12:12;;;;;;;22.6;18.2;;;;;;;-132.3;0;77030;;;;
2023/05/24 12:23:12;;;;;;;22.6;18.2;;;;;;;-132.3;0;77040;;;;
2023/05/24 12:34:12;;;;;;;20.6;18.1;;;;;;;-132.3;0;77060;;;;
2023/05/24 12:44:12;;;;;;;20.6;18.1;;;;;;;-132.3;0;77050;;;;
2023/05/24 12:54:12;;;;;;;20.6;18.1;;;;;;;-132.3;0;77060;;;;
2023/05/24 13:04:12;;;;;;;23.8;20.7;;;;;;;-132.3;0;77040;;;;
2023/05/24 13:14:14;;;;;;;23.8;20.7;;;;;;;-132.3;0;77030;;;;
2023/05/24 13:25:12;;;;;;;23.8;20.7;;;;;;;-132.3;0;77020;;;;
2023/05/24 13:35:12;;;;;;;22.3;19.2;;;;;;;-132.3;0;77010;;;;
2023/05/24 13:46:13;;;;;;;22.3;19.2;;;;;;;-132.3;0;77020;;;;
2023/05/24 13:56:12;;;;;;;22.3;19.2;;;;;;;-132.3;0;76970;;;;
2023/05/24 14:06:12;;;;;;;19.8;16.7;;;;;;;-132.3;0;76970;;;;
2023/05/24 14:17:12;;;;;;;19.8;16.7;;;;;;;-132.3;0;76990;;;;
2023/05/24 14:27:12;;;;;;;19.8;16.7;;;;;;;-132.3;0;76950;;;;
2023/05/24 14:38:12;;;;;;;18.4;15.6;;;;;;;-132.3;0;76920;;;;
2023/05/24 14:48:13;;;;;;;18.4;15.6;;;;;;;-132.3;0;76900;;;;
2023/05/24 14:58:12;;;;;;;18.4;15.6;;;;;;;-132.3;0;76930;;;;
2023/05/24 15:08:12;;;;;;;20.9;16.3;;;;;;;-132.3;0;76930;;;;
2023/05/24 15:18:12;;;;;;;20.9;16.3;;;;;;;-132.3;0;76950;;;;
2023/05/24 15:28:15;;;;;;;20.9;16.3;;;;;;;-132.3;0;76930;;;;
2023/05/24 15:39:12;;;;;;;19.3;16.1;;;;;;;-132.3;0;76920;;;;
2023/05/24 15:50:13;;;;;;;19.3;16.1;;;;;;;-132.3;0;76950;;;;
2023/05/24 16:01:12;;;;;;;19.3;16.1;;;;;;;-132.3;0;76980;;;;
2023/05/24 16:12:12;;;;;;;19.9;16.1;;;;;;;-132.3;0;77010;;;;
2023/05/24 16:22:12;;;;;;;19.9;16.1;;;;;;;-132.3;0;77040;;;;
2023/05/24 16:32:12;;;;;;;19.9;16.1;;;;;;;-132.3;0;77050;;;;
2023/05/24 16:42:12;;;;;;;17.3;15.3;;;;;;;-132.3;0;77080;;;;
2023/05/24 16:52:12;;;;;;;17.3;15.3;;;;;;;-132.3;0;77090;;;;
2023/05/24 17:03:12;;;;;;;21.1;16.9;;;;;;;-132.3;0;77120;;;;
2023/05/24 17:13:12;;;;;;;21.1;16.9;;;;;;;-132.3;0;77120;;;;
2023/05/24 17:23:12;;;;;;;21.1;16.9;;;;;;;-132.3;0;77140;;;;
2023/05/24 17:34:14;;;;;;;18.8;16.3;;;;;;;-132.3;0;77170;;;;
2023/05/24 17:44:12;;;;;;;18.8;16.3;;;;;;;-132.3;0;77180;;;;
2023/05/24 17:55:12;;;;;;;18.8;16.3;;;;;;;-132.3;0;77210;;;;
2023/05/24 18:05:12;;;;;;;22.7;18.4;;;;;;;-132.3;0;77210;;;;
2023/05/24 18:16:12;;;;;;;22.7;18.4;;;;;;;-132.3;0;77230;;;;
2023/05/24 18:27:12;;;;;;;22.7;18.4;;;;;;;-132.3;0;77250;;;;
2023/05/24 18:38:13;;;;;;;23.6;18.5;;;;;;;-132.3;0;77260;;;;
2023/05/24 18:48:12;;;;;;;23.6;18.5;;;;;;;-132.3;0;77280;;;;
2023/05/24 18:58:13;;;;;;;23.6;18.5;;;;;;;-132.3;0;77290;;;;
2023/05/24 19:09:12;;;;;;;22;18.5;;;;;;;-132.3;0;77310;;;;
2023/05/24 19:19:13;;;;;;;22;18.5;;;;;;;-132.3;0;77320;;;;
2023/05/24 19:30:13;;;;;;;22;18.5;;;;;;;-132.3;0;77330;;;;
2023/05/24 19:40:12;;;;;;;24.8;17.7;;;;;;;-132.3;0;77320;;;;
2023/05/24 19:50:13;;;;;;;24.8;17.7;;;;;;;-132.3;0;77320;;;;
2023/05/24 20:00:13;;;;;;;24.8;17.7;;;;;;;-132.3;0;77330;;;;
2023/05/24 20:11:13;;;;;;;26.2;18.5;;;;;;;-132.3;0;77330;;;;
2023/05/24 20:21:13;;;;;;;26.2;18.5;;;;;;;-132.3;0;77320;;;;
2023/05/24 20:32:13;;;;;;;26.2;18.5;;;;;;;-132.3;0;77330;;;;
2023/05/24 20:43:13;;;;;;;25.7;19.9;;;;;;;-132.3;0;77340;;;;
2023/05/24 23:16:04;;;;;;;26.9;21.3;;;;;;;-132.3;0;77440;;;;
2023/05/24 23:45:52;;;;;;;22.7;19.3;;;;;;;-132.3;0;77460;;;;
2023/05/24 23:59:20;;;;;;;22.7;19.3;;;;;;;-132.3;0;77460;;;;
